Rago, Kansas
Current Conditions -  °F | °C
As of 4:53 PM on Tuesday 27 Jan 2015 (Local Time) from KICT Reporting Station
Few Clouds Few Clouds  
Wind Chill: 71°   Ceiling: Unl
Heat Index: 71°   Visibility: 10mi
Dew Point: 36°   Wind: 13mph
Humidity: 28%   Direction: 170°S
Pressure: 30"   Gusts: NA
Location:  37.45°N, 98.08°W
Report Text: KICT 272253Z 17011KT 10SM FEW250 22/02 A3000 RMK AO2 SLP156 T02170022
Loading
Personal Weather Stations






























Interactive Weather Map New forecast layout! Learn more

10-Day Weather Forecast

Advertisements
Track Severe Weather on mobile